Time,TemperatureF,DewpointF,PressureIn,WindDirection,WindDirectionDegrees,WindSpeedMPH,WindSpeedGustMPH,Humidity,HourlyPrecipIn,Conditions,Clouds,dailyrainin,SoftwareType,DateUTC
2013-01-12 00:01:00,69.7,65.7,30.08,SE,137,0.0,11.0,87,0.00,,SKC,0.00,VWS V14.01,2013-01-12 06:01:00,
2013-01-12 00:06:00,69.8,65.8,30.08,ESE,111,7.0,11.0,87,0.00,,SKC,0.00,VWS V14.01,2013-01-12 06:06:00,
2013-01-12 00:11:00,69.8,65.8,30.08,SE,138,4.0,12.0,87,0.00,,SKC,0.00,VWS V14.01,2013-01-12 06:11:00,
2013-01-12 00:16:00,69.9,65.9,30.08,SE,144,2.0,13.0,87,0.00,,SKC,0.00,VWS V14.01,2013-01-12 06:16:00,
2013-01-12 00:21:00,70.0,66.0,30.08,SE,135,4.0,13.0,87,0.00,,SKC,0.00,VWS V14.01,2013-01-12 06:21:00,
2013-01-12 00:26:00,70.0,66.3,30.07,SE,128,7.0,13.0,88,0.00,,SKC,0.00,VWS V14.01,2013-01-12 06:26:00,
2013-01-12 00:31:00,70.0,66.3,30.07,SE,144,6.0,13.0,88,0.00,,SKC,0.00,VWS V14.01,2013-01-12 06:31:00,
2013-01-12 00:36:00,70.0,66.3,30.07,SE,132,5.0,10.0,88,0.00,,SKC,0.00,VWS V14.01,2013-01-12 06:36:00,
2013-01-12 00:41:00,69.9,66.5,30.07,SE,138,4.0,11.0,89,0.00,,SKC,0.00,VWS V14.01,2013-01-12 06:41:00,
2013-01-12 00:46:00,69.9,66.5,30.07,ESE,113,7.0,11.0,89,0.00,,SKC,0.00,VWS V14.01,2013-01-12 06:46:00,
2013-01-12 00:51:00,69.8,66.4,30.07,SE,140,6.0,11.0,89,0.00,,SKC,0.00,VWS V14.01,2013-01-12 06:51:00,
2013-01-12 00:56:00,69.8,66.4,30.07,SSE,164,6.0,11.0,89,0.00,,SKC,0.00,VWS V14.01,2013-01-12 06:56:00,
2013-01-12 01:01:00,69.7,66.3,30.07,SSE,150,5.0,11.0,89,0.00,,SKC,0.00,VWS V14.01,2013-01-12 07:01:00,
2013-01-12 01:06:00,69.7,66.3,30.07,SE,145,4.0,8.0,89,0.00,,SKC,0.00,VWS V14.01,2013-01-12 07:06:00,
2013-01-12 01:11:00,69.6,66.2,30.07,SE,127,5.0,10.0,89,0.00,,SKC,0.00,VWS V14.01,2013-01-12 07:11:00,
2013-01-12 01:16:00,69.5,65.8,30.07,SSE,155,2.0,10.0,88,0.00,,SKC,0.00,VWS V14.01,2013-01-12 07:16:00,
2013-01-12 01:21:00,69.5,65.8,30.07,South,169,7.0,10.0,88,0.00,,SKC,0.00,VWS V14.01,2013-01-12 07:21:00,
2013-01-12 01:26:00,69.5,65.8,30.07,SSE,151,4.0,10.0,88,0.00,,SKC,0.00,VWS V14.01,2013-01-12 07:26:00,
2013-01-12 01:31:00,69.5,65.8,30.07,SSE,159,6.0,10.0,88,0.00,,SKC,0.00,VWS V14.01,2013-01-12 07:31:00,
2013-01-12 01:36:00,69.5,65.8,30.07,SSE,156,4.0,10.0,88,0.00,,SKC,0.00,VWS V14.01,2013-01-12 07:36:00,
2013-01-12 01:41:00,69.5,65.8,30.07,ESE,115,6.0,10.0,88,0.00,,SKC,0.00,VWS V14.01,2013-01-12 07:41:00,
2013-01-12 01:46:00,69.5,65.8,30.07,SSE,160,5.0,13.0,88,0.00,,SKC,0.00,VWS V14.01,2013-01-12 07:46:00,
2013-01-12 01:51:00,69.6,65.9,30.07,ESE,118,5.0,13.0,88,0.00,,SKC,0.00,VWS V14.01,2013-01-12 07:51:00,
2013-01-12 01:56:00,69.5,66.1,30.07,South,171,9.0,13.0,89,0.00,,SKC,0.00,VWS V14.01,2013-01-12 07:56:00,
2013-01-12 02:01:00,69.6,66.2,30.07,SE,145,4.0,13.0,89,0.00,,SKC,0.00,VWS V14.01,2013-01-12 08:01:00,
2013-01-12 02:06:00,69.5,66.1,30.07,SE,136,1.0,8.0,89,0.00,,SKC,0.00,VWS V14.01,2013-01-12 08:06:00,
2013-01-12 02:11:00,69.5,65.8,30.07,SE,144,6.0,8.0,88,0.00,,SKC,0.00,VWS V14.01,2013-01-12 08:11:00,
2013-01-12 02:16:00,69.5,65.8,30.06,SE,128,4.0,9.0,88,0.00,,SKC,0.00,VWS V14.01,2013-01-12 08:16:00,
2013-01-12 02:21:00,69.4,66.0,30.06,SE,128,2.0,9.0,89,0.00,,SKC,0.00,VWS V14.01,2013-01-12 08:21:00,
2013-01-12 02:26:00,69.4,65.7,30.06,SE,126,2.0,9.0,88,0.00,,SKC,0.00,VWS V14.01,2013-01-12 08:26:00,
2013-01-12 02:31:00,69.4,66.0,30.06,SE,128,6.0,6.0,89,0.00,,SKC,0.00,VWS V14.01,2013-01-12 08:31:00,
2013-01-12 02:36:00,69.3,65.9,30.06,SSE,159,6.0,7.0,89,0.00,,SKC,0.00,VWS V14.01,2013-01-12 08:36:00,
2013-01-12 02:41:00,69.2,65.5,30.06,SE,126,1.0,8.0,88,0.00,,SKC,0.00,VWS V14.01,2013-01-12 08:41:00,
2013-01-12 02:46:00,69.2,65.5,30.06,SE,133,1.0,8.0,88,0.00,,SKC,0.00,VWS V14.01,2013-01-12 08:46:00,
2013-01-12 02:51:00,69.1,65.4,30.06,SSE,148,1.0,8.0,88,0.00,,SKC,0.00,VWS V14.01,2013-01-12 08:51:00,
2013-01-12 02:56:00,69.1,65.4,30.06,SE,144,6.0,8.0,88,0.00,,SKC,0.00,VWS V14.01,2013-01-12 08:56:00,
2013-01-12 03:01:00,69.0,65.3,30.06,SE,144,2.0,8.0,88,0.00,,SKC,0.00,VWS V14.01,2013-01-12 09:01:00,
2013-01-12 03:06:00,69.0,65.3,30.06,SSE,147,5.0,6.0,88,0.00,,SKC,0.00,VWS V14.01,2013-01-12 09:06:00,
2013-01-12 03:11:00,68.9,65.2,30.06,SSE,147,2.0,6.0,88,0.00,,SKC,0.00,VWS V14.01,2013-01-12 09:11:00,
2013-01-12 03:16:00,68.8,65.1,30.06,SSE,147,0.0,6.0,88,0.00,,SKC,0.00,VWS V14.01,2013-01-12 09:16:00,
2013-01-12 03:21:00,68.8,65.1,30.05,SSE,147,1.0,6.0,88,0.00,,SKC,0.00,VWS V14.01,2013-01-12 09:21:00,
2013-01-12 03:26:00,68.7,65.0,30.05,SSE,147,0.0,6.0,88,0.00,,SKC,0.00,VWS V14.01,2013-01-12 09:26:00,
2013-01-12 03:31:00,68.6,64.9,30.05,SSE,147,1.0,6.0,88,0.00,,SKC,0.00,VWS V14.01,2013-01-12 09:31:00,
2013-01-12 03:36:00,68.6,64.9,30.05,SSE,147,0.0,1.0,88,0.00,,SKC,0.00,VWS V14.01,2013-01-12 09:36:00,
2013-01-12 03:41:00,68.5,64.8,30.05,SSE,147,1.0,1.0,88,0.00,,SKC,0.00,VWS V14.01,2013-01-12 09:41:00,
2013-01-12 03:46:00,68.3,64.6,30.05,SSE,147,0.0,1.0,88,0.00,,SKC,0.00,VWS V14.01,2013-01-12 09:46:00,
2013-01-12 03:51:00,68.2,64.5,30.05,SSE,147,0.0,1.0,88,0.00,,SKC,0.00,VWS V14.01,2013-01-12 09:51:00,
2013-01-12 03:56:00,68.1,64.4,30.05,SSE,147,0.0,1.0,88,0.00,,SKC,0.00,VWS V14.01,2013-01-12 09:56:00,
2013-01-12 04:01:00,68.0,64.3,30.05,SSE,147,0.0,1.0,88,0.00,,SKC,0.00,VWS V14.01,2013-01-12 10:01:00,
2013-01-12 04:06:00,67.9,63.9,30.05,SSE,147,0.0,1.0,87,0.00,,SKC,0.00,VWS V14.01,2013-01-12 10:06:00,
2013-01-12 04:11:00,67.7,63.7,30.04,SSE,147,0.0,1.0,87,0.00,,SKC,0.00,VWS V14.01,2013-01-12 10:11:00,
2013-01-12 04:16:00,67.6,63.6,30.05,SSE,147,1.0,1.0,87,0.00,,SKC,0.00,VWS V14.01,2013-01-12 10:16:00,
2013-01-12 04:21:00,67.5,63.5,30.04,SSE,147,0.0,2.0,87,0.00,,SKC,0.00,VWS V14.01,2013-01-12 10:21:00,
2013-01-12 04:26:00,67.4,63.4,30.04,SSE,147,1.0,2.0,87,0.00,,SKC,0.00,VWS V14.01,2013-01-12 10:26:00,
2013-01-12 04:31:00,67.3,63.0,30.04,SSE,147,0.0,2.0,86,0.00,,SKC,0.00,VWS V14.01,2013-01-12 10:31:00,
2013-01-12 04:36:00,67.2,62.9,30.04,SSE,147,0.0,2.0,86,0.00,,SKC,0.00,VWS V14.01,2013-01-12 10:36:00,
2013-01-12 04:41:00,67.2,62.9,30.04,SSE,147,1.0,3.0,86,0.00,,SKC,0.00,VWS V14.01,2013-01-12 10:41:00,
2013-01-12 04:46:00,67.2,62.9,30.04,SSE,147,1.0,4.0,86,0.00,,SKC,0.00,VWS V14.01,2013-01-12 10:46:00,
2013-01-12 04:51:00,67.1,62.8,30.04,SSE,147,4.0,5.0,86,0.00,,SKC,0.00,VWS V14.01,2013-01-12 10:51:00,
2013-01-12 04:56:00,67.2,62.5,30.04,SSE,147,4.0,5.0,85,0.00,,SKC,0.00,VWS V14.01,2013-01-12 10:56:00,
2013-01-12 05:01:00,67.2,62.5,30.04,SSE,147,1.0,5.0,85,0.00,,SKC,0.00,VWS V14.01,2013-01-12 11:01:00,
2013-01-12 05:06:00,67.2,62.5,30.04,SE,144,0.0,6.0,85,0.00,,SKC,0.00,VWS V14.01,2013-01-12 11:06:00,
2013-01-12 05:11:00,67.4,62.4,30.04,SSE,155,0.0,7.0,84,0.00,,SKC,0.00,VWS V14.01,2013-01-12 11:11:00,
2013-01-12 05:16:00,67.5,62.5,30.04,SSE,155,1.0,7.0,84,0.00,,SKC,0.00,VWS V14.01,2013-01-12 11:16:00,
2013-01-12 05:21:00,67.6,62.6,30.04,SE,136,5.0,8.0,84,0.00,,SKC,0.00,VWS V14.01,2013-01-12 11:21:00,
2013-01-12 05:26:00,67.6,62.6,30.04,ESE,119,3.0,8.0,84,0.00,,SKC,0.00,VWS V14.01,2013-01-12 11:26:00,
2013-01-12 05:31:00,67.7,62.7,30.04,SE,129,4.0,8.0,84,0.00,,SKC,0.00,VWS V14.01,2013-01-12 11:31:00,
2013-01-12 05:36:00,67.8,62.8,30.04,SSE,153,6.0,8.0,84,0.00,,SKC,0.00,VWS V14.01,2013-01-12 11:36:00,
2013-01-12 05:41:00,67.9,62.9,30.03,SE,129,2.0,8.0,84,0.00,,SKC,0.00,VWS V14.01,2013-01-12 11:41:00,
2013-01-12 05:46:00,68.0,63.0,30.04,SSE,150,4.0,8.0,84,0.00,,SKC,0.00,VWS V14.01,2013-01-12 11:46:00,
2013-01-12 05:51:00,68.1,63.1,30.04,SSE,150,2.0,8.0,84,0.00,,SKC,0.00,VWS V14.01,2013-01-12 11:51:00,
2013-01-12 05:56:00,68.2,63.2,30.04,SE,138,1.0,8.0,84,0.00,,SKC,0.00,VWS V14.01,2013-01-12 11:56:00,
2013-01-12 06:01:00,68.3,63.3,30.05,SSW,192,5.0,9.0,84,0.00,,SKC,0.00,VWS V14.01,2013-01-12 12:01:00,
2013-01-12 06:06:00,68.5,63.5,30.05,SSE,153,2.0,7.0,84,0.00,,SKC,0.00,VWS V14.01,2013-01-12 12:06:00,
2013-01-12 06:11:00,68.5,63.5,30.05,SE,144,7.0,8.0,84,0.00,,SKC,0.00,VWS V14.01,2013-01-12 12:11:00,
2013-01-12 06:16:00,68.6,63.6,30.05,SE,144,1.0,8.0,84,0.00,,SKC,0.00,VWS V14.01,2013-01-12 12:16:00,
2013-01-12 06:21:00,68.6,63.6,30.05,SE,144,1.0,8.0,84,0.00,,SKC,0.00,VWS V14.01,2013-01-12 12:21:00,
2013-01-12 06:26:00,68.6,63.9,30.05,SSE,167,3.0,8.0,85,0.00,,SKC,0.00,VWS V14.01,2013-01-12 12:26:00,
2013-01-12 06:31:00,68.5,63.8,30.05,SSE,167,1.0,8.0,85,0.00,,SKC,0.00,VWS V14.01,2013-01-12 12:31:00,
2013-01-12 06:36:00,68.4,63.7,30.05,SE,146,4.0,6.0,85,0.00,,SKC,0.00,VWS V14.01,2013-01-12 12:36:00,
2013-01-12 06:41:00,68.4,63.7,30.06,SE,146,1.0,6.0,85,0.00,,SKC,0.00,VWS V14.01,2013-01-12 12:41:00,
2013-01-12 06:46:00,68.3,63.6,30.05,SE,146,1.0,6.0,85,0.00,,SKC,0.00,VWS V14.01,2013-01-12 12:46:00,
2013-01-12 06:51:00,68.2,63.5,30.06,SE,146,2.0,6.0,85,0.00,,SKC,0.00,VWS V14.01,2013-01-12 12:51:00,
2013-01-12 06:56:00,68.2,63.5,30.06,SE,146,0.0,6.0,85,0.00,,SKC,0.00,VWS V14.01,2013-01-12 12:56:00,
2013-01-12 07:01:00,68.2,63.5,30.06,SE,146,0.0,6.0,85,0.00,,SKC,0.00,VWS V14.01,2013-01-12 13:01:00,
2013-01-12 07:06:00,68.1,63.4,30.06,SE,146,0.0,2.0,85,0.00,,SKC,0.00,VWS V14.01,2013-01-12 13:06:00,
2013-01-12 07:11:00,68.1,63.4,30.06,SE,146,0.0,2.0,85,0.00,,SKC,0.00,VWS V14.01,2013-01-12 13:11:00,
2013-01-12 07:16:00,68.1,63.4,30.06,SE,146,0.0,4.0,85,0.00,,SKC,0.00,VWS V14.01,2013-01-12 13:16:00,
2013-01-12 07:21:00,68.2,63.5,30.06,SE,146,1.0,4.0,85,0.00,,SKC,0.00,VWS V14.01,2013-01-12 13:21:00,
2013-01-12 07:26:00,68.2,63.5,30.06,East,84,4.0,5.0,85,0.00,,SKC,0.00,VWS V14.01,2013-01-12 13:26:00,
2013-01-12 07:31:00,68.4,63.7,30.06,SE,140,0.0,5.0,85,0.00,,SKC,0.00,VWS V14.01,2013-01-12 13:31:00,
2013-01-12 07:36:00,68.6,63.6,30.07,SE,140,0.0,3.0,84,0.00,,SKC,0.00,VWS V14.01,2013-01-12 13:36:00,
2013-01-12 07:41:00,68.7,63.7,30.06,SE,140,2.0,6.0,84,0.00,,SKC,0.00,VWS V14.01,2013-01-12 13:41:00,
2013-01-12 07:46:00,69.0,64.0,30.07,SE,141,4.0,6.0,84,0.00,,SKC,0.00,VWS V14.01,2013-01-12 13:46:00,
2013-01-12 07:51:00,69.3,64.3,30.07,SE,136,0.0,6.0,84,0.00,,SKC,0.00,VWS V14.01,2013-01-12 13:51:00,
2013-01-12 07:56:00,69.7,64.7,30.08,SE,136,2.0,6.0,84,0.00,,SKC,0.00,VWS V14.01,2013-01-12 13:56:00,
2013-01-12 08:01:00,70.1,65.4,30.08,SE,136,4.0,6.0,85,0.00,,SKC,0.00,VWS V14.01,2013-01-12 14:01:00,
2013-01-12 08:06:00,70.4,66.0,30.08,SE,140,0.0,6.0,86,0.00,,SKC,0.00,VWS V14.01,2013-01-12 14:06:00,
2013-01-12 08:10:00,70.9,67.2,30.08,SSE,159,4.0,7.0,88,0.00,,SKC,0.00,VWS V14.01,2013-01-12 14:10:00,
2013-01-12 08:15:00,71.2,68.1,30.08,SE,140,4.0,7.0,90,0.00,,SKC,0.00,VWS V14.01,2013-01-12 14:15:00,
2013-01-12 08:20:00,71.5,68.7,30.08,SSW,201,0.0,7.0,91,0.00,,SKC,0.00,VWS V14.01,2013-01-12 14:20:00,
2013-01-12 08:25:00,72.0,69.2,30.07,SE,138,7.0,7.0,91,0.00,,SKC,0.00,VWS V14.01,2013-01-12 14:25:00,
2013-01-12 08:30:00,72.4,69.6,30.08,SE,140,10.0,12.0,91,0.00,,SKC,0.00,VWS V14.01,2013-01-12 14:30:00,
2013-01-12 08:35:00,72.9,70.1,30.08,SE,136,7.0,8.0,91,0.00,,SKC,0.00,VWS V14.01,2013-01-12 14:35:00,
2013-01-12 08:40:00,73.2,70.1,30.08,South,180,7.0,11.0,90,0.00,,SKC,0.00,VWS V14.01,2013-01-12 14:40:00,
2013-01-12 08:45:00,73.3,70.2,30.08,SE,138,6.0,11.0,90,0.00,,SKC,0.00,VWS V14.01,2013-01-12 14:45:00,
2013-01-12 08:50:00,73.2,70.1,30.09,SSE,158,5.0,11.0,90,0.00,,SKC,0.00,VWS V14.01,2013-01-12 14:50:00,
2013-01-12 08:55:00,73.1,70.0,30.09,South,180,9.0,11.0,90,0.00,,SKC,0.00,VWS V14.01,2013-01-12 14:55:00,
2013-01-12 09:00:00,73.0,69.9,30.09,SE,136,5.0,11.0,90,0.00,,SKC,0.00,VWS V14.01,2013-01-12 15:00:00,
2013-01-12 09:05:00,72.9,69.8,30.09,SE,145,4.0,7.0,90,0.00,,SKC,0.00,VWS V14.01,2013-01-12 15:05:00,
2013-01-12 09:10:00,72.9,69.8,30.10,SE,138,6.0,11.0,90,0.00,,SKC,0.00,VWS V14.01,2013-01-12 15:10:00,
2013-01-12 09:15:00,72.9,69.8,30.10,SE,126,7.0,11.0,90,0.00,,SKC,0.00,VWS V14.01,2013-01-12 15:15:00,
2013-01-12 09:20:00,72.9,69.5,30.10,SE,141,6.0,11.0,89,0.00,,SKC,0.00,VWS V14.01,2013-01-12 15:20:00,
2013-01-12 09:25:00,73.0,69.6,30.10,SSE,156,12.0,12.0,89,0.00,,SKC,0.00,VWS V14.01,2013-01-12 15:25:00,
2013-01-12 09:30:00,73.3,69.9,30.10,SE,138,9.0,12.0,89,0.00,,SKC,0.00,VWS V14.01,2013-01-12 15:30:00,
2013-01-12 09:35:00,73.6,69.8,30.10,SE,139,7.0,11.0,88,0.00,,SKC,0.00,VWS V14.01,2013-01-12 15:35:00,
2013-01-12 09:40:00,73.8,69.7,30.10,SE,140,6.0,12.0,87,0.00,,SKC,0.00,VWS V14.01,2013-01-12 15:40:00,
2013-01-12 09:45:00,73.9,69.8,30.10,SSE,163,4.0,14.0,87,0.00,,SKC,0.00,VWS V14.01,2013-01-12 15:45:00,
2013-01-12 09:50:00,74.0,69.9,30.10,SSE,163,6.0,14.0,87,0.00,,SKC,0.00,VWS V14.01,2013-01-12 15:50:00,
2013-01-12 09:55:00,73.9,69.4,30.09,SE,131,4.0,14.0,86,0.00,,SKC,0.00,VWS V14.01,2013-01-12 15:55:00,
2013-01-12 10:00:00,73.7,69.3,30.10,SSE,166,5.0,14.0,86,0.00,,SKC,0.00,VWS V14.01,2013-01-12 16:00:00,
2013-01-12 10:05:00,73.6,69.5,30.09,SE,138,5.0,9.0,87,0.00,,SKC,0.00,VWS V14.01,2013-01-12 16:05:00,
2013-01-12 10:10:00,73.6,69.5,30.09,SSE,159,6.0,11.0,87,0.00,,SKC,0.00,VWS V14.01,2013-01-12 16:10:00,
2013-01-12 10:15:00,73.4,69.3,30.09,SSE,149,6.0,12.0,87,0.00,,SKC,0.00,VWS V14.01,2013-01-12 16:15:00,
2013-01-12 10:20:00,73.3,69.2,30.09,SE,139,6.0,12.0,87,0.00,,SKC,0.00,VWS V14.01,2013-01-12 16:20:00,
2013-01-12 10:25:00,73.4,69.3,30.09,SSW,199,4.0,12.0,87,0.00,,SKC,0.00,VWS V14.01,2013-01-12 16:25:00,
2013-01-12 10:30:00,73.6,69.2,30.08,SE,126,6.0,12.0,86,0.00,,SKC,0.00,VWS V14.01,2013-01-12 16:30:00,
2013-01-12 10:35:00,73.8,69.3,30.08,SE,145,6.0,11.0,86,0.00,,SKC,0.00,VWS V14.01,2013-01-12 16:35:00,
2013-01-12 10:40:00,74.1,69.7,30.08,SSE,154,14.0,14.0,86,0.00,,SKC,0.00,VWS V14.01,2013-01-12 16:40:00,
2013-01-12 10:45:00,74.5,69.3,30.08,SE,128,14.0,14.0,84,0.00,,SKC,0.00,VWS V14.01,2013-01-12 16:45:00,
2013-01-12 10:50:00,75.0,69.1,30.07,South,172,6.0,14.0,82,0.00,,SKC,0.00,VWS V14.01,2013-01-12 16:50:00,
2013-01-12 10:55:00,75.3,69.4,30.07,SSE,165,10.0,19.0,82,0.00,,SKC,0.00,VWS V14.01,2013-01-12 16:55:00,
2013-01-12 11:00:00,75.3,69.1,30.06,SE,126,12.0,19.0,81,0.00,,SKC,0.00,VWS V14.01,2013-01-12 17:00:00,
2013-01-12 11:05:00,75.0,69.1,30.06,SE,135,7.0,18.0,82,0.00,,SKC,0.00,VWS V14.01,2013-01-12 17:05:00,
2013-01-12 11:10:00,74.8,68.9,30.06,South,169,13.0,18.0,82,0.00,,SKC,0.00,VWS V14.01,2013-01-12 17:10:00,
2013-01-12 11:15:00,74.8,68.9,30.06,SSE,161,8.0,19.0,82,0.00,,SKC,0.00,VWS V14.01,2013-01-12 17:15:00,
2013-01-12 11:20:00,74.9,69.4,30.05,SE,136,9.0,19.0,83,0.00,,SKC,0.00,VWS V14.01,2013-01-12 17:20:00,
2013-01-12 11:25:00,75.2,69.3,30.05,SSW,202,7.0,19.0,82,0.00,,SKC,0.00,VWS V14.01,2013-01-12 17:25:00,
2013-01-12 11:30:00,75.5,69.6,30.04,South,182,6.0,19.0,82,0.00,,SKC,0.00,VWS V14.01,2013-01-12 17:30:00,
2013-01-12 11:35:00,75.8,69.2,30.04,SSE,148,7.0,18.0,80,0.00,,SKC,0.00,VWS V14.01,2013-01-12 17:35:00,
2013-01-12 11:40:00,76.0,69.8,30.05,SE,132,3.0,18.0,81,0.00,,SKC,0.00,VWS V14.01,2013-01-12 17:40:00,
2013-01-12 11:45:00,76.1,69.1,30.05,ESE,119,10.0,18.0,79,0.00,,SKC,0.00,VWS V14.01,2013-01-12 17:45:00,
2013-01-12 11:50:00,75.9,69.7,30.04,SE,127,9.0,18.0,81,0.00,,SKC,0.00,VWS V14.01,2013-01-12 17:50:00,
2013-01-12 11:55:00,76.2,69.9,30.04,SE,142,9.0,18.0,81,0.00,,SKC,0.00,VWS V14.01,2013-01-12 17:55:00,
2013-01-12 12:00:00,76.4,69.8,30.04,SSE,162,13.0,18.0,80,0.00,,SKC,0.00,VWS V14.01,2013-01-12 18:00:00,
2013-01-12 12:05:00,76.4,69.8,30.04,SSE,164,9.0,14.0,80,0.00,,SKC,0.00,VWS V14.01,2013-01-12 18:05:00,
2013-01-12 12:10:00,76.5,69.9,30.04,SSE,150,11.0,15.0,80,0.00,,SKC,0.00,VWS V14.01,2013-01-12 18:10:00,
2013-01-12 12:15:00,76.0,69.0,30.04,SE,138,6.0,16.0,79,0.00,,SKC,0.00,VWS V14.01,2013-01-12 18:15:00,
2013-01-12 12:20:00,75.5,68.9,30.04,SE,135,10.0,16.0,80,0.00,,SKC,0.00,VWS V14.01,2013-01-12 18:20:00,
2013-01-12 12:25:00,75.5,69.3,30.03,SE,141,8.0,16.0,81,0.00,,SKC,0.00,VWS V14.01,2013-01-12 18:25:00,
2013-01-12 12:30:00,75.8,69.6,30.03,SSE,165,11.0,16.0,81,0.00,,SKC,0.00,VWS V14.01,2013-01-12 18:30:00,
2013-01-12 12:35:00,75.8,68.8,30.03,SSE,167,5.0,15.0,79,0.00,,SKC,0.00,VWS V14.01,2013-01-12 18:35:00,
2013-01-12 12:40:00,75.8,69.2,30.03,South,185,8.0,20.0,80,0.00,,SKC,0.00,VWS V14.01,2013-01-12 18:40:00,
2013-01-12 12:45:00,76.1,69.1,30.02,SE,128,11.0,20.0,79,0.00,,SKC,0.00,VWS V14.01,2013-01-12 18:45:00,
2013-01-12 12:50:00,75.8,68.8,30.02,SE,124,12.0,20.0,79,0.00,,SKC,0.00,VWS V14.01,2013-01-12 18:50:00,
2013-01-12 12:55:00,75.5,68.9,30.02,SE,127,12.0,20.0,80,0.00,,SKC,0.00,VWS V14.01,2013-01-12 18:55:00,
2013-01-12 13:00:00,75.3,68.7,30.02,SE,140,10.0,20.0,80,0.00,,SKC,0.00,VWS V14.01,2013-01-12 19:00:00,
2013-01-12 13:05:00,75.2,68.2,30.02,SE,142,7.0,15.0,79,0.00,,SKC,0.00,VWS V14.01,2013-01-12 19:05:00,
2013-01-12 13:10:00,75.2,68.2,30.02,SSE,166,9.0,15.0,79,0.00,,SKC,0.00,VWS V14.01,2013-01-12 19:10:00,
2013-01-12 13:15:00,75.2,68.2,30.01,SSE,151,9.0,16.0,79,0.00,,SKC,0.00,VWS V14.01,2013-01-12 19:15:00,
2013-01-12 13:20:00,75.3,68.7,30.01,SSE,151,7.0,16.0,80,0.00,,SKC,0.00,VWS V14.01,2013-01-12 19:20:00,
2013-01-12 13:25:00,75.3,69.1,30.01,South,181,7.0,16.0,81,0.00,,SKC,0.00,VWS V14.01,2013-01-12 19:25:00,
2013-01-12 13:30:00,75.2,69.0,30.01,SSE,157,6.0,16.0,81,0.00,,SKC,0.00,VWS V14.01,2013-01-12 19:30:00,
2013-01-12 13:35:00,75.0,69.1,30.01,SSE,164,9.0,15.0,82,0.00,,SKC,0.00,VWS V14.01,2013-01-12 19:35:00,
2013-01-12 13:40:00,74.8,68.9,30.01,ESE,123,5.0,19.0,82,0.00,,SKC,0.00,VWS V14.01,2013-01-12 19:40:00,
2013-01-12 13:45:00,74.7,69.2,30.01,SE,132,11.0,19.0,83,0.00,,SKC,0.00,VWS V14.01,2013-01-12 19:45:00,
2013-01-12 13:50:00,74.8,69.7,30.00,ESE,120,4.0,19.0,84,0.00,,SKC,0.00,VWS V14.01,2013-01-12 19:50:00,
2013-01-12 13:55:00,74.5,69.0,30.01,East,99,8.0,19.0,83,0.00,,SKC,0.00,VWS V14.01,2013-01-12 19:55:00,
2013-01-12 14:00:00,74.3,69.2,30.01,SSE,150,9.0,19.0,84,0.00,,SKC,0.00,VWS V14.01,2013-01-12 20:00:00,
2013-01-12 14:05:00,74.3,69.2,30.01,South,169,10.0,14.0,84,0.00,,SKC,0.00,VWS V14.01,2013-01-12 20:05:00,
2013-01-12 14:10:00,74.5,69.3,30.02,ESE,118,9.0,14.0,84,0.00,,SKC,0.00,VWS V14.01,2013-01-12 20:10:00,
2013-01-12 14:15:00,74.5,69.3,30.01,SSE,157,12.0,14.0,84,0.00,,SKC,0.00,VWS V14.01,2013-01-12 20:15:00,
2013-01-12 14:20:00,74.1,69.0,30.01,South,177,9.0,14.0,84,0.00,,SKC,0.00,VWS V14.01,2013-01-12 20:20:00,
2013-01-12 14:25:00,73.9,69.1,30.01,SE,146,14.0,14.0,85,0.00,,SKC,0.00,VWS V14.01,2013-01-12 20:25:00,
2013-01-12 14:30:00,73.9,69.1,30.01,SE,132,5.0,14.0,85,0.00,,SKC,0.00,VWS V14.01,2013-01-12 20:30:00,
2013-01-12 14:35:00,74.1,69.3,30.01,South,185,11.0,11.0,85,0.00,,SKC,0.00,VWS V14.01,2013-01-12 20:35:00,
2013-01-12 14:40:00,74.2,69.1,30.01,SE,133,8.0,18.0,84,0.00,,SKC,0.00,VWS V14.01,2013-01-12 20:40:00,
2013-01-12 14:45:00,73.9,69.1,30.01,SSE,158,5.0,18.0,85,0.00,,SKC,0.00,VWS V14.01,2013-01-12 20:45:00,
2013-01-12 14:50:00,73.8,69.0,30.01,SSE,150,7.0,18.0,85,0.00,,SKC,0.00,VWS V14.01,2013-01-12 20:50:00,
2013-01-12 14:55:00,73.5,68.7,30.01,SSE,157,7.0,18.0,85,0.00,,SKC,0.00,VWS V14.01,2013-01-12 20:55:00,
2013-01-12 15:00:00,73.4,69.0,30.01,SSE,150,6.0,18.0,86,0.00,,SKC,0.00,VWS V14.01,2013-01-12 21:00:00,
2013-01-12 15:05:00,73.5,69.4,30.01,SE,142,6.0,9.0,87,0.00,,SKC,0.00,VWS V14.01,2013-01-12 21:05:00,
2013-01-12 15:10:00,73.5,69.1,30.01,SE,125,9.0,11.0,86,0.00,,SKC,0.00,VWS V14.01,2013-01-12 21:10:00,
2013-01-12 15:15:00,73.3,69.2,30.00,SSE,147,7.0,13.0,87,0.00,,SKC,0.00,VWS V14.01,2013-01-12 21:15:00,
2013-01-12 15:20:00,73.2,69.1,30.01,SE,135,10.0,13.0,87,0.00,,SKC,0.00,VWS V14.01,2013-01-12 21:20:00,
2013-01-12 15:25:00,73.0,68.9,30.01,SE,146,7.0,13.0,87,0.00,,SKC,0.00,VWS V14.01,2013-01-12 21:25:00,
2013-01-12 15:30:00,72.9,69.1,30.00,SE,142,4.0,13.0,88,0.00,,SKC,0.00,VWS V14.01,2013-01-12 21:30:00,
2013-01-12 15:35:00,72.7,68.9,30.00,SSE,154,6.0,13.0,88,0.00,,SKC,0.00,VWS V14.01,2013-01-12 21:35:00,
2013-01-12 15:40:00,72.6,68.8,30.01,SSE,153,6.0,13.0,88,0.00,,SKC,0.00,VWS V14.01,2013-01-12 21:40:00,
2013-01-12 15:45:00,72.4,69.0,30.01,SSE,158,3.0,13.0,89,0.00,,SKC,0.00,VWS V14.01,2013-01-12 21:45:00,
2013-01-12 15:50:00,72.2,68.8,30.01,SE,135,7.0,13.0,89,0.00,,SKC,0.00,VWS V14.01,2013-01-12 21:50:00,
2013-01-12 15:55:00,72.1,68.7,30.01,SE,143,2.0,13.0,89,0.00,,SKC,0.00,VWS V14.01,2013-01-12 21:55:00,
2013-01-12 16:00:00,72.0,68.6,30.01,SE,138,8.0,13.0,89,0.00,,SKC,0.00,VWS V14.01,2013-01-12 22:00:00,
2013-01-12 16:05:00,71.8,68.7,30.01,SSE,147,8.0,12.0,90,0.00,,SKC,0.00,VWS V14.01,2013-01-12 22:05:00,
2013-01-12 16:10:00,71.7,68.6,30.01,ESE,108,1.0,13.0,90,0.00,,SKC,0.00,VWS V14.01,2013-01-12 22:10:00,
2013-01-12 16:15:00,71.6,68.5,30.01,SSE,150,5.0,13.0,90,0.00,,SKC,0.00,VWS V14.01,2013-01-12 22:15:00,
2013-01-12 16:20:00,71.5,68.4,30.01,SE,127,8.0,13.0,90,0.00,,SKC,0.00,VWS V14.01,2013-01-12 22:20:00,
2013-01-12 16:25:00,71.4,68.3,30.00,South,172,9.0,13.0,90,0.00,,SKC,0.00,VWS V14.01,2013-01-12 22:25:00,
2013-01-12 16:30:00,71.3,68.2,30.00,SE,143,7.0,13.0,90,0.00,,SKC,0.00,VWS V14.01,2013-01-12 22:30:00,
2013-01-12 16:35:00,71.2,68.1,30.00,ESE,123,6.0,9.0,90,0.00,,SKC,0.00,VWS V14.01,2013-01-12 22:35:00,
2013-01-12 16:40:00,71.0,67.9,30.00,SSE,148,7.0,11.0,90,0.00,,SKC,0.00,VWS V14.01,2013-01-12 22:40:00,
2013-01-12 16:45:00,70.9,68.2,30.00,ESE,121,6.0,12.0,91,0.00,,SKC,0.00,VWS V14.01,2013-01-12 22:45:00,
2013-01-12 16:50:00,70.8,68.1,30.01,SSE,166,8.0,12.0,91,0.00,,SKC,0.00,VWS V14.01,2013-01-12 22:50:00,
2013-01-12 16:55:00,70.8,68.1,30.01,SE,130,8.0,12.0,91,0.00,,SKC,0.00,VWS V14.01,2013-01-12 22:55:00,
2013-01-12 17:00:00,70.7,67.9,30.01,ESE,113,7.0,12.0,91,0.00,,SKC,0.00,VWS V14.01,2013-01-12 23:00:00,
2013-01-12 17:05:00,70.6,67.8,30.01,ESE,119,6.0,12.0,91,0.00,,SKC,0.00,VWS V14.01,2013-01-12 23:05:00,
2013-01-12 17:10:00,70.6,67.8,30.00,SE,135,6.0,14.0,91,0.00,,SKC,0.00,VWS V14.01,2013-01-12 23:10:00,
2013-01-12 17:15:00,70.5,67.8,30.00,SSE,161,7.0,14.0,91,0.00,,SKC,0.00,VWS V14.01,2013-01-12 23:15:00,
2013-01-12 17:20:00,70.4,67.7,30.00,SE,146,8.0,14.0,91,0.00,,SKC,0.00,VWS V14.01,2013-01-12 23:20:00,
2013-01-12 17:25:00,70.4,67.7,30.01,SE,141,5.0,14.0,91,0.00,,SKC,0.00,VWS V14.01,2013-01-12 23:25:00,
2013-01-12 17:30:00,70.4,67.7,30.00,SSE,168,6.0,14.0,91,0.00,,SKC,0.00,VWS V14.01,2013-01-12 23:30:00,
2013-01-12 17:35:00,70.4,67.7,30.01,SSE,165,0.0,10.0,91,0.00,,SKC,0.00,VWS V14.01,2013-01-12 23:35:00,
2013-01-12 17:40:00,70.3,67.6,30.01,South,175,5.0,10.0,91,0.00,,SKC,0.00,VWS V14.01,2013-01-12 23:40:00,
2013-01-12 17:45:00,70.3,67.6,30.01,SSE,154,7.0,10.0,91,0.00,,SKC,0.00,VWS V14.01,2013-01-12 23:45:00,
2013-01-12 17:50:00,70.3,67.6,30.00,SSE,163,9.0,14.0,91,0.00,,SKC,0.00,VWS V14.01,2013-01-12 23:50:00,
2013-01-12 17:55:00,70.3,67.6,30.00,SE,129,5.0,14.0,91,0.00,,SKC,0.00,VWS V14.01,2013-01-12 23:55:00,
2013-01-12 18:00:00,70.2,67.4,30.00,SSE,149,8.0,14.0,91,0.00,,SKC,0.00,VWS V14.01,2013-01-13 00:00:00,
2013-01-12 18:05:00,70.2,67.4,30.00,ESE,117,11.0,14.0,91,0.00,,SKC,0.00,VWS V14.01,2013-01-13 00:05:00,
2013-01-12 18:10:00,70.2,67.4,30.00,SSE,165,7.0,14.0,91,0.00,,SKC,0.00,VWS V14.01,2013-01-13 00:10:00,
2013-01-12 18:15:00,70.1,67.4,30.00,SE,134,7.0,14.0,91,0.00,,SKC,0.00,VWS V14.01,2013-01-13 00:15:00,
2013-01-12 18:20:00,70.1,67.4,29.99,ESE,121,7.0,14.0,91,0.00,,SKC,0.00,VWS V14.01,2013-01-13 00:20:00,
2013-01-12 18:25:00,70.1,67.4,29.99,SE,128,7.0,14.0,91,0.00,,SKC,0.00,VWS V14.01,2013-01-13 00:25:00,
2013-01-12 18:30:00,70.1,67.4,29.99,SE,131,5.0,14.0,91,0.00,,SKC,0.00,VWS V14.01,2013-01-13 00:30:00,
2013-01-12 18:35:00,70.1,67.4,29.98,ESE,121,10.0,13.0,91,0.00,,SKC,0.00,VWS V14.01,2013-01-13 00:35:00,
2013-01-12 18:40:00,70.1,67.4,29.99,ESE,113,9.0,15.0,91,0.00,,SKC,0.00,VWS V14.01,2013-01-13 00:40:00,
2013-01-12 18:45:00,70.1,67.4,29.99,SSE,147,9.0,15.0,91,0.00,,SKC,0.00,VWS V14.01,2013-01-13 00:45:00,
2013-01-12 18:50:00,70.1,67.4,29.99,SSE,153,5.0,15.0,91,0.00,,SKC,0.00,VWS V14.01,2013-01-13 00:50:00,
2013-01-12 18:55:00,70.1,67.4,29.99,SSE,150,5.0,15.0,91,0.00,,SKC,0.00,VWS V14.01,2013-01-13 00:55:00,
2013-01-12 19:00:00,70.1,67.4,30.00,SE,134,5.0,15.0,91,0.00,,SKC,0.00,VWS V14.01,2013-01-13 01:00:00,
2013-01-12 19:05:00,70.2,67.4,30.00,SE,146,5.0,10.0,91,0.00,,SKC,0.00,VWS V14.01,2013-01-13 01:05:00,
2013-01-12 19:10:00,70.2,67.4,30.00,South,171,9.0,11.0,91,0.00,,SKC,0.00,VWS V14.01,2013-01-13 01:10:00,
2013-01-12 19:15:00,70.2,67.4,30.00,South,175,6.0,11.0,91,0.00,,SKC,0.00,VWS V14.01,2013-01-13 01:15:00,
2013-01-12 19:20:00,70.2,67.4,30.00,SSE,148,4.0,11.0,91,0.00,,SKC,0.00,VWS V14.01,2013-01-13 01:20:00,
2013-01-12 19:25:00,70.2,67.4,30.00,SSE,153,4.0,11.0,91,0.00,,SKC,0.00,VWS V14.01,2013-01-13 01:25:00,
2013-01-12 19:30:00,70.2,67.4,30.00,South,177,11.0,11.0,91,0.00,,SKC,0.00,VWS V14.01,2013-01-13 01:30:00,
2013-01-12 19:35:00,70.2,67.4,29.99,SSE,163,2.0,11.0,91,0.00,,SKC,0.00,VWS V14.01,2013-01-13 01:35:00,
2013-01-12 19:40:00,70.2,67.4,29.99,SSE,153,5.0,15.0,91,0.00,,SKC,0.00,VWS V14.01,2013-01-13 01:40:00,
2013-01-12 19:45:00,70.2,67.4,29.99,SSE,155,5.0,15.0,91,0.00,,SKC,0.00,VWS V14.01,2013-01-13 01:45:00,
2013-01-12 19:50:00,70.2,67.4,29.99,SE,135,6.0,15.0,91,0.00,,SKC,0.00,VWS V14.01,2013-01-13 01:50:00,
2013-01-12 19:55:00,70.2,67.4,29.99,SE,143,3.0,15.0,91,0.00,,SKC,0.00,VWS V14.01,2013-01-13 01:55:00,
2013-01-12 20:00:00,70.2,67.4,29.99,SSE,155,9.0,15.0,91,0.00,,SKC,0.00,VWS V14.01,2013-01-13 02:00:00,
2013-01-12 20:05:00,70.1,67.4,29.99,SSE,153,9.0,13.0,91,0.00,,SKC,0.00,VWS V14.01,2013-01-13 02:05:00,
2013-01-12 20:10:00,70.1,67.4,29.99,SSE,153,9.0,13.0,91,0.00,,SKC,0.00,VWS V14.01,2013-01-13 02:10:00,
2013-01-12 20:15:00,70.0,67.3,29.98,SSE,156,8.0,13.0,91,0.00,,SKC,0.00,VWS V14.01,2013-01-13 02:15:00,
2013-01-12 20:20:00,70.1,67.4,29.98,South,169,5.0,13.0,91,0.00,,SKC,0.00,VWS V14.01,2013-01-13 02:20:00,
2013-01-12 20:25:00,70.1,67.4,29.98,SSE,157,5.0,14.0,91,0.00,,SKC,0.00,VWS V14.01,2013-01-13 02:25:00,
2013-01-12 20:30:00,70.1,67.4,29.99,SSE,147,0.0,14.0,91,0.00,,SKC,0.00,VWS V14.01,2013-01-13 02:30:00,
2013-01-12 20:35:00,70.1,67.0,29.98,ESE,115,7.0,11.0,90,0.00,,SKC,0.00,VWS V14.01,2013-01-13 02:35:00,
2013-01-12 20:40:00,70.1,67.0,29.98,SE,140,6.0,11.0,90,0.00,,SKC,0.00,VWS V14.01,2013-01-13 02:40:00,
2013-01-12 20:45:00,70.1,67.0,29.98,SE,134,4.0,11.0,90,0.00,,SKC,0.00,VWS V14.01,2013-01-13 02:45:00,
2013-01-12 20:50:00,70.1,67.0,29.97,SSE,147,4.0,14.0,90,0.00,,SKC,0.00,VWS V14.01,2013-01-13 02:50:00,
2013-01-12 20:55:00,70.1,67.4,29.97,SSE,152,6.0,14.0,91,0.00,,SKC,0.00,VWS V14.01,2013-01-13 02:55:00,
2013-01-12 21:00:00,70.0,67.3,29.97,SE,127,8.0,14.0,91,0.00,,SKC,0.00,VWS V14.01,2013-01-13 03:00:00,
2013-01-12 21:05:00,70.0,66.9,29.97,ESE,117,7.0,13.0,90,0.00,,SKC,0.00,VWS V14.01,2013-01-13 03:05:00,
2013-01-12 21:10:00,70.0,66.9,29.97,SE,129,4.0,13.0,90,0.00,,SKC,0.00,VWS V14.01,2013-01-13 03:10:00,
2013-01-12 21:15:00,70.0,66.9,29.97,SE,139,6.0,15.0,90,0.00,,SKC,0.00,VWS V14.01,2013-01-13 03:15:00,
2013-01-12 21:20:00,70.0,66.9,29.97,South,171,4.0,15.0,90,0.00,,SKC,0.00,VWS V14.01,2013-01-13 03:20:00,
2013-01-12 21:25:00,70.0,66.9,29.97,ESE,123,8.0,15.0,90,0.00,,SKC,0.00,VWS V14.01,2013-01-13 03:25:00,
2013-01-12 21:30:00,70.0,66.9,29.97,SE,132,5.0,15.0,90,0.00,,SKC,0.00,VWS V14.01,2013-01-13 03:30:00,
2013-01-12 21:35:00,70.0,66.9,29.97,SE,142,5.0,14.0,90,0.00,,SKC,0.00,VWS V14.01,2013-01-13 03:35:00,
2013-01-12 21:40:00,70.1,67.0,29.97,SE,141,7.0,14.0,90,0.00,,SKC,0.00,VWS V14.01,2013-01-13 03:40:00,
2013-01-12 21:45:00,70.1,67.0,29.97,SE,131,8.0,14.0,90,0.00,,SKC,0.00,VWS V14.01,2013-01-13 03:45:00,
2013-01-12 21:50:00,70.1,67.0,29.97,SE,144,2.0,14.0,90,0.00,,SKC,0.00,VWS V14.01,2013-01-13 03:50:00,
2013-01-12 21:55:00,70.1,67.0,29.98,SSE,157,7.0,14.0,90,0.00,,SKC,0.00,VWS V14.01,2013-01-13 03:55:00,
2013-01-12 22:00:00,70.2,67.1,29.98,SSE,153,4.0,14.0,90,0.00,,SKC,0.00,VWS V14.01,2013-01-13 04:00:00,
2013-01-12 22:05:00,70.3,67.2,29.98,SSE,148,6.0,13.0,90,0.00,,SKC,0.00,VWS V14.01,2013-01-13 04:05:00,
2013-01-12 22:10:00,70.4,67.3,29.98,SSE,163,7.0,13.0,90,0.00,,SKC,0.00,VWS V14.01,2013-01-13 04:10:00,
2013-01-12 22:15:00,70.5,67.4,29.98,SSE,155,8.0,13.0,90,0.00,,SKC,0.00,VWS V14.01,2013-01-13 04:15:00,
2013-01-12 22:20:00,70.6,67.8,29.97,SE,141,5.0,13.0,91,0.00,,SKC,0.00,VWS V14.01,2013-01-13 04:20:00,
2013-01-12 22:25:00,70.6,67.8,29.98,SSE,165,1.0,14.0,91,0.00,,SKC,0.00,VWS V14.01,2013-01-13 04:25:00,
2013-01-12 22:30:00,70.7,67.9,29.98,SSE,148,6.0,14.0,91,0.00,,SKC,0.00,VWS V14.01,2013-01-13 04:30:00,
2013-01-12 22:35:00,70.7,67.6,29.98,SE,136,11.0,15.0,90,0.00,,SKC,0.00,VWS V14.01,2013-01-13 04:35:00,
2013-01-12 22:40:00,70.7,67.9,29.98,SSE,149,12.0,15.0,91,0.00,,SKC,0.00,VWS V14.01,2013-01-13 04:40:00,
2013-01-12 22:45:00,70.8,68.1,29.98,SSE,157,11.0,15.0,91,0.00,,SKC,0.00,VWS V14.01,2013-01-13 04:45:00,
2013-01-12 22:50:00,70.8,68.1,29.98,SE,144,3.0,15.0,91,0.00,,SKC,0.00,VWS V14.01,2013-01-13 04:50:00,
2013-01-12 22:55:00,70.8,68.1,29.98,SE,144,7.0,15.0,91,0.00,,SKC,0.00,VWS V14.01,2013-01-13 04:55:00,
2013-01-12 23:00:00,70.7,67.6,29.98,SE,144,6.0,15.0,90,0.00,,SKC,0.00,VWS V14.01,2013-01-13 05:00:00,
2013-01-12 23:05:00,70.6,67.5,29.98,SSE,162,6.0,10.0,90,0.00,,SKC,0.00,VWS V14.01,2013-01-13 05:05:00,
2013-01-12 23:10:00,70.6,67.5,29.98,SSE,152,7.0,13.0,90,0.00,,SKC,0.00,VWS V14.01,2013-01-13 05:10:00,
2013-01-12 23:15:00,70.6,67.5,29.98,SSE,159,7.0,13.0,90,0.00,,SKC,0.00,VWS V14.01,2013-01-13 05:15:00,
2013-01-12 23:20:00,70.7,67.6,29.98,SSE,158,8.0,13.0,90,0.00,,SKC,0.00,VWS V14.01,2013-01-13 05:20:00,
2013-01-12 23:25:00,70.7,67.6,29.98,SE,138,4.0,13.0,90,0.00,,SKC,0.00,VWS V14.01,2013-01-13 05:25:00,
2013-01-12 23:30:00,70.7,67.6,29.98,SE,133,6.0,13.0,90,0.00,,SKC,0.00,VWS V14.01,2013-01-13 05:30:00,
2013-01-12 23:35:00,70.7,67.6,29.98,South,176,8.0,12.0,90,0.00,,SKC,0.00,VWS V14.01,2013-01-13 05:35:00,
2013-01-12 23:40:00,70.7,67.6,29.98,South,175,11.0,15.0,90,0.00,,SKC,0.00,VWS V14.01,2013-01-13 05:40:00,
2013-01-12 23:45:00,70.7,67.6,29.98,SE,135,6.0,15.0,90,0.00,,SKC,0.00,VWS V14.01,2013-01-13 05:45:00,
2013-01-12 23:50:00,70.7,67.6,29.98,South,181,8.0,15.0,90,0.00,,SKC,0.00,VWS V14.01,2013-01-13 05:50:00,
2013-01-12 23:55:00,70.7,67.6,29.98,South,188,5.0,15.0,90,0.00,,SKC,0.00,VWS V14.01,2013-01-13 05:55:00,